Terminal Aerodrome Forecast
Issued by NWS

Home | Current Version | Previous Version | Text Only | Print | Product List | Glossary On
Versions: 1 2 3 4 5 6 7 8 9 10 11 12
000
FTAK31 PAJN 032300
TAFAPG
TAF
PAPG 032325Z 0400/0424 05008KT P6SM SCT050
     FM040400 VRB03KT P6SM SCT050
     FM040900 VRB02KT P6SM BKN025
     FM041500 VRB03KT P6SM FEW015
     FM041800 05006KT P6SM FEW025 SCT220
      AMD LTD TO CLD VIS AND WIND 0406/0415=

USA.gov is the U.S. government's official web portal to all federal, state and local government web resources and services.